• Join FlightAware (Why Join?)
  • Login
  • US Flag 
Gobble Gobble! 
05:05AM EST


 

Airport Tracker/Info


-or-


 

Live Flight TrackerFlight Track Log ✈ N6ZE ✈ 15-Jul-2014 ✈ KDAB - KTMB

Flight Track Log - Related Links

Times and Time Zones

All times are in EDT time to prevent confusion due to time zone crossing. See the N6ZE flight status page for this flight to view local times or setup timezone preferences in your user account.

Time Position Orientation Groundspeed Altitude Reporting Facility
EDT Latitude Longitude Course Direction KTS MPH feet Rate Location/Type
05:39PM 29.1722 -81.0756 176° South 163 188 800  Level Jacksonville Center
05:41PM 29.1442 -81.1500 247° West 202 232 4,800 2,880 Climbing Jacksonville Center
05:42PM 29.0833 -81.2167 224° Southwest 233 268 9,400 1,980 Climbing Orlando TRACON
05:43PM 29.0167 -81.1667 147° Southeast 299 344 10,100 960 Climbing Orlando TRACON
05:44PM 29.0000 -81.0667 101° East 299 344 11,400 2,100 Climbing Orlando TRACON
05:45PM 29.1772 -81.0579 176° South  Level FlightAware Approximate
05:45PM 28.9333 -81.0333 156° South 249 287 14,800  Level Orlando TRACON
05:46PM 28.8500 -81.0667 199° South 277 319 16,100 600 Climbing Orlando TRACON
05:47PM 28.7667 -81.1000 199° South 334 384 16,000 -60 Descending Orlando TRACON
05:48PM 28.7000 -81.1167 192° South 341 392 16,000  Level Orlando TRACON
05:49PM 28.5833 -81.1500 194° South 339 390 16,000  Level Orlando TRACON
05:50PM 28.5000 -81.1833 199° South 338 389 16,000  Level Orlando TRACON
05:52PM 28.3106 -81.1981 184° South 336 387 16,000 540 Level Miami Center
05:54PM 28.2333 -81.2514 211° Southwest 329 379 17,700 2,220 Climbing Miami Center
05:55PM 28.1639 -81.3022 213° Southwest 278 320 20,700 2,280 Climbing Miami Center
05:56PM 28.1000 -81.3494 213° Southwest 264 304 22,500 1,080 Climbing Miami Center
05:57PM 28.0294 -81.3981 211° Southwest 283 326 23,000 240 Climbing Miami Center
05:58PM 27.9672 -81.4425 212° Southwest 317 365 23,000  Level Miami Center
05:59PM 27.8700 -81.5086 211° Southwest 337 388 23,000  Level Miami Center
06:00PM 27.7681 -81.5256 188° South 352 405 23,000  Level Miami Center
06:01PM 27.6747 -81.5444 190° South 325 374 23,000  Level Miami Center
06:02PM 27.5964 -81.5611 191° South 277 319 23,000 -420 Level Miami Center
06:03PM 27.5150 -81.5775 190° South 281 323 22,200 -780 Descending Miami Center
06:04PM 27.4367 -81.5942 191° South 294 338 21,400 -600 Descending Miami Center
06:05PM 27.3511 -81.6031 185° South 295 339 21,000 -240 Descending Miami Center
06:06PM 27.2689 -81.6092 184° South 288 331 21,000  Level Miami Center
06:07PM 27.1858 -81.6292 192° South 289 333 21,000  Level Miami Center
06:08PM 27.1014 -81.6489 192° South 314 361 21,000  Level Miami Center
06:09PM 27.0097 -81.6692 191° South 344 396 21,000  Level Miami Center
06:10PM 26.9119 -81.6911 191° South 358 412 21,000  Level Miami Center
06:11PM 26.8114 -81.7106 190° South 363 418 21,000  Level Miami Center
06:12PM 26.6953 -81.6594 159° South 376 433 21,000 -300 Level Miami Center
06:13PM 26.6042 -81.6031 151° Southeast 383 441 20,400 -900 Descending Miami Center
06:14PM 26.5111 -81.5469 152° Southeast 367 422 19,200 -1,560 Descending Miami Center
06:15PM 26.4250 -81.4897 149° Southeast 338 389 17,300 -1,800 Descending Miami Center
06:16PM 26.3567 -81.4214 138° Southeast 331 381 15,600 -1,620 Descending Miami Center
06:17PM 26.2894 -81.3553 139° Southeast 329 379 14,000 -1,560 Descending Miami Center
06:18PM 26.2650 -81.3306 138° Southeast 324 373 13,300 -1,680 Descending Miami Center
06:18PM 26.2178 -81.2864 140° Southeast 320 368 12,300 -1,500 Descending Miami Center
06:19PM 26.1517 -81.2225 139° Southeast 317 365 11,000 -1,080 Descending Miami Center
06:20PM 26.0817 -81.1547 139° Southeast 315 362 10,100 -540 Descending Miami Center
06:21PM 26.0186 -81.0933 139° Southeast 306 352 10,000 -120 Descending Miami Center
06:22PM 25.9533 -81.0186 134° Southeast 299 344 9,900 -540 Descending Miami Center
06:23PM 25.9019 -80.9597 134° Southeast 296 341 9,000 -960 Descending Miami Center
06:24PM 25.8478 -80.8981 134° Southeast 281 323 8,000 -1,320 Descending Miami Center
06:25PM 25.7900 -80.8314 134° Southeast 275 316 6,400 -1,500 Descending Miami Center
06:26PM 25.7425 -80.7747 133° Southeast 277 319 5,000 -1,440 Descending Miami Center
06:27PM 25.6908 -80.7147 134° Southeast 211 243 3,600 -1,200 Descending Miami Center
06:28PM 25.6542 -80.6678 131° Southeast 194 223 2,600 -840 Descending Miami Center
06:29PM 25.6361 -80.6222 114° Southeast 160 184 1,900 -300 Descending Miami Center
06:31PM 25.6378 -80.5739 88° East 149 171 2,000 -120 Climbing Miami Center
06:31PM 25.6394 -80.5394 87° East 134 154 1,700 -540 Descending Miami Center
06:33PM 25.6414 -80.4953 87° East 128 147 1,000 -660 Descending Miami Center
06:34PM 25.6425 -80.4611 88° East 125 144 400 -660 Descending Miami Center
06:36PM 25.6476 -80.4332 90° East  Level Estimated